createdAt,value
2019-06-07T05:39:25.219Z,14.52
2019-06-07T05:40:25.200Z,14.64
2019-06-07T05:41:25.215Z,14.83
2019-06-07T05:42:25.176Z,14.80
2019-06-07T05:43:25.171Z,14.87
2019-06-07T05:44:25.165Z,14.91
2019-06-07T05:45:25.143Z,14.91
2019-06-07T05:46:25.145Z,14.94
2019-06-07T05:47:25.517Z,15.06
2019-06-07T05:48:25.111Z,15.35
2019-06-07T05:49:25.099Z,15.41
2019-06-07T05:50:39.234Z,15.57
2019-06-07T05:51:26.086Z,15.60
2019-06-07T05:52:25.067Z,15.72
2019-06-07T05:53:25.053Z,15.75
2019-06-07T05:54:25.046Z,15.82
2019-06-07T05:55:25.030Z,15.94
2019-06-07T05:56:25.031Z,15.86
2019-06-07T05:57:25.018Z,15.93
2019-06-07T05:58:25.004Z,15.81
2019-06-07T05:59:24.986Z,15.86
2019-06-07T06:00:25.279Z,15.94
2019-06-07T06:01:42.826Z,16.00
2019-06-07T06:02:26.074Z,15.76
2019-06-07T06:03:24.943Z,15.84
2019-06-07T06:04:24.931Z,16.06
2019-06-07T06:05:34.394Z,15.97
2019-06-07T06:06:25.916Z,16.01
2019-06-07T06:07:24.900Z,16.20
2019-06-07T06:08:24.886Z,16.04
2019-06-07T06:09:24.874Z,15.99
2019-06-07T06:10:24.863Z,16.12
2019-06-07T06:11:42.988Z,16.23
2019-06-07T06:12:35.254Z,16.26
2019-06-07T06:13:25.833Z,16.25
2019-06-07T06:14:24.818Z,16.26
2019-06-07T06:15:41.466Z,16.45
2019-06-07T06:16:25.805Z,16.53
2019-06-07T06:17:24.787Z,16.62
2019-06-07T06:18:24.774Z,16.53
2019-06-07T06:19:24.791Z,16.48
2019-06-07T06:20:32.494Z,16.52
2019-06-07T06:21:25.751Z,16.53
2019-06-07T06:22:24.731Z,16.59
2019-06-07T06:23:24.720Z,16.52
2019-06-07T06:24:24.711Z,16.52
2019-06-07T06:25:33.758Z,16.48
2019-06-07T06:26:25.697Z,16.42
2019-06-07T06:28:25.663Z,16.38
2019-06-07T06:29:24.652Z,16.49
2019-06-07T06:30:24.642Z,16.65
2019-06-07T06:31:24.674Z,16.80
2019-06-07T06:32:42.065Z,16.83
2019-06-07T06:33:33.452Z,16.99
2019-06-07T06:34:25.599Z,16.98
2019-06-07T06:35:24.587Z,16.99
2019-06-07T06:36:24.587Z,17.06
2019-06-07T06:37:24.569Z,17.23
2019-06-07T06:38:24.560Z,17.44
2019-06-07T06:39:24.539Z,17.38
2019-06-07T06:40:24.533Z,17.43
2019-06-07T06:41:24.519Z,17.18
2019-06-07T06:42:24.519Z,17.17
2019-06-07T06:43:24.495Z,17.22
2019-06-07T06:44:24.490Z,17.08
2019-06-07T06:45:24.476Z,16.98
2019-06-07T06:46:37.925Z,16.83
2019-06-07T06:47:25.459Z,16.65
2019-06-07T06:48:24.441Z,16.58
2019-06-07T06:49:24.431Z,16.83
2019-06-07T06:50:24.418Z,17.00
2019-06-07T06:51:24.407Z,17.11
2019-06-07T06:52:24.405Z,17.10
2019-06-07T06:53:24.392Z,17.18
2019-06-07T06:54:40.226Z,17.10
2019-06-07T06:55:25.363Z,17.15
2019-06-07T06:56:24.351Z,17.26
2019-06-07T06:57:24.352Z,17.35
2019-06-07T06:58:24.330Z,17.18
2019-06-07T06:59:38.858Z,17.26
2019-06-07T07:00:43.035Z,17.22
2019-06-07T07:01:25.295Z,17.35
2019-06-07T07:02:24.293Z,17.40
2019-06-07T07:03:56.450Z,17.32
2019-06-07T07:04:25.262Z,17.25
2019-06-07T07:05:24.249Z,17.22
2019-06-07T07:06:26.884Z,17.20
2019-06-07T07:07:24.238Z,17.08
2019-06-07T07:08:24.219Z,16.78
2019-06-07T07:09:24.206Z,16.78
2019-06-07T07:10:24.195Z,16.56
2019-06-07T07:11:24.184Z,16.53
2019-06-07T07:12:24.200Z,16.50
2019-06-07T07:13:24.163Z,16.42
2019-06-07T07:14:24.150Z,16.49
2019-06-07T07:15:24.141Z,16.70
2019-06-07T07:16:24.127Z,16.67
2019-06-07T07:17:46.675Z,16.81
2019-06-07T07:18:25.104Z,16.95
2019-06-07T07:19:24.093Z,16.93
2019-06-07T07:20:24.439Z,16.95
2019-06-07T07:21:24.070Z,16.92
2019-06-07T07:22:24.070Z,17.13
2019-06-07T07:23:24.049Z,17.11
2019-06-07T07:24:24.038Z,17.15
2019-06-07T07:25:24.027Z,17.15
2019-06-07T07:26:24.044Z,17.11
2019-06-07T07:27:24.012Z,17.10
2019-06-07T07:28:23.994Z,17.18
2019-06-07T07:29:24.033Z,17.22
2019-06-07T07:30:36.514Z,17.28
2019-06-07T07:31:24.962Z,17.33
2019-06-07T07:32:23.957Z,17.30
2019-06-07T07:33:23.936Z,17.30
2019-06-07T07:34:34.545Z,17.40
2019-06-07T07:35:24.911Z,17.47
2019-06-07T07:36:38.684Z,17.44
2019-06-07T07:37:24.909Z,17.57
2019-06-07T07:38:23.907Z,17.53
2019-06-07T07:39:23.867Z,17.57
2019-06-07T07:41:24.845Z,17.64
2019-06-07T07:42:23.835Z,17.70
2019-06-07T07:43:23.834Z,17.76
2019-06-07T07:44:23.815Z,17.89
2019-06-07T07:45:23.801Z,17.87
2019-06-07T07:46:29.678Z,17.92
2019-06-07T07:47:24.777Z,17.89
2019-06-07T07:48:23.775Z,17.88
2019-06-07T07:49:23.755Z,17.89
2019-06-07T07:50:23.747Z,17.91
2019-06-07T07:51:23.736Z,17.89
2019-06-07T07:52:23.721Z,17.97
2019-06-07T07:53:23.719Z,17.97
2019-06-07T07:54:23.700Z,18.07
2019-06-07T07:55:23.723Z,18.15
2019-06-07T07:56:23.680Z,18.21
2019-06-07T07:57:23.670Z,18.19
2019-06-07T07:58:23.665Z,18.25
2019-06-07T07:59:41.066Z,18.27
2019-06-07T08:00:50.328Z,18.22
2019-06-07T08:01:24.622Z,18.29
2019-06-07T08:02:23.609Z,18.39
2019-06-07T08:03:23.609Z,18.40
2019-06-07T08:04:29.464Z,18.42
2019-06-07T08:05:41.590Z,18.39
2019-06-07T08:06:24.567Z,18.42
2019-06-07T08:07:23.572Z,18.42
2019-06-07T08:08:23.556Z,18.40
2019-06-07T08:09:23.534Z,18.47
2019-06-07T08:10:23.538Z,18.58
2019-06-07T08:11:23.509Z,18.64
2019-06-07T08:12:23.503Z,18.59
2019-06-07T08:13:26.855Z,18.82
2019-06-07T08:14:23.492Z,18.86
2019-06-07T08:15:23.467Z,18.83
2019-06-07T08:16:23.456Z,18.79
2019-06-07T08:17:23.445Z,19.02
2019-06-07T08:18:23.445Z,19.17
2019-06-07T08:19:23.424Z,19.43
2019-06-07T08:20:23.413Z,19.58
2019-06-07T08:21:26.654Z,19.70
2019-06-07T08:22:23.391Z,19.75
2019-06-07T08:23:23.388Z,19.80
2019-06-07T08:24:23.367Z,19.90
2019-06-07T08:25:23.357Z,20.05
2019-06-07T08:26:23.351Z,20.27
2019-06-07T08:27:26.778Z,20.12
2019-06-07T08:28:23.334Z,20.08
2019-06-07T08:29:23.373Z,20.05
2019-06-07T08:30:47.974Z,19.95
2019-06-07T08:31:24.291Z,19.79
2019-06-07T08:32:23.278Z,19.76
2019-06-07T08:33:26.339Z,19.69
2019-06-07T08:34:23.253Z,19.70
2019-06-07T08:36:02.891Z,19.66
2019-06-07T08:36:40.810Z,19.75
2019-06-07T08:38:13.447Z,19.93
2019-06-07T08:38:29.675Z,19.86
2019-06-07T08:39:24.215Z,19.80
2019-06-07T08:40:23.185Z,19.95
2019-06-07T08:41:23.178Z,20.03
2019-06-07T08:42:36.493Z,20.33
2019-06-07T08:43:24.153Z,20.34
2019-06-07T08:44:25.498Z,20.53
2019-06-07T08:45:23.132Z,20.65
2019-06-07T08:46:23.124Z,20.76
2019-06-07T08:47:23.108Z,20.77
2019-06-07T08:48:28.002Z,20.83
2019-06-07T08:49:24.094Z,21.08
2019-06-07T08:50:23.083Z,21.19
2019-06-07T08:51:23.063Z,21.48
2019-06-07T08:52:23.053Z,21.44
2019-06-07T08:53:23.042Z,21.50
2019-06-07T08:54:23.562Z,21.64
2019-06-07T08:55:23.020Z,21.85
2019-06-07T08:56:23.014Z,22.02
2019-06-07T08:57:23.002Z,21.88
2019-06-07T08:58:22.999Z,21.95
2019-06-07T08:59:22.983Z,22.13
2019-06-07T09:00:45.540Z,22.31
2019-06-07T09:01:23.952Z,22.23
2019-06-07T09:02:24.166Z,22.29
2019-06-07T09:03:22.938Z,22.38
2019-06-07T09:04:22.933Z,22.34
2019-06-07T09:05:22.909Z,22.39
2019-06-07T09:07:23.891Z,22.62
2019-06-07T09:08:29.802Z,23.07
2019-06-07T09:09:23.873Z,23.31
2019-06-07T09:10:22.856Z,23.47
2019-06-07T09:11:22.843Z,23.38
2019-06-07T09:12:22.833Z,23.29
2019-06-07T09:13:22.821Z,23.24
2019-06-07T09:14:22.821Z,23.15
2019-06-07T09:15:24.319Z,23.42
2019-06-07T09:16:22.792Z,23.45
2019-06-07T09:17:22.777Z,23.43
2019-06-07T09:18:40.849Z,23.70
2019-06-07T09:19:23.762Z,23.83
2019-06-07T09:20:36.532Z,23.70
2019-06-07T09:21:23.731Z,23.72
2019-06-07T09:22:22.722Z,23.61
2019-06-07T09:23:22.709Z,23.52
2019-06-07T09:24:22.710Z,23.61
2019-06-07T09:25:22.692Z,23.71
2019-06-07T09:26:22.676Z,23.82
2019-06-07T09:27:22.666Z,23.71
2019-06-07T09:28:22.656Z,23.75
2019-06-07T09:29:22.661Z,23.82
2019-06-07T09:30:22.637Z,23.85
2019-06-07T09:31:22.626Z,24.01
2019-06-07T09:32:22.613Z,24.17
2019-06-07T09:33:22.601Z,24.42
2019-06-07T09:34:22.610Z,24.26
2019-06-07T09:35:22.589Z,24.12
2019-06-07T09:36:22.568Z,23.85
2019-06-07T09:38:03.669Z,23.68
2019-06-07T09:38:26.082Z,23.75
2019-06-07T09:39:22.535Z,23.65
2019-06-07T09:40:27.629Z,23.62
2019-06-07T09:41:42.724Z,23.39
2019-06-07T09:42:23.502Z,23.26
2019-06-07T09:44:26.176Z,23.38
2019-06-07T09:45:22.480Z,23.53
2019-06-07T09:46:22.472Z,23.42
2019-06-07T09:47:32.322Z,23.40
2019-06-07T09:49:09.145Z,23.42
2019-06-07T09:49:31.896Z,23.27
2019-06-07T09:50:23.427Z,23.35
2019-06-07T09:51:22.411Z,23.47
2019-06-07T09:52:22.404Z,23.61
2019-06-07T09:53:23.534Z,23.89
2019-06-07T09:55:04.066Z,23.89
2019-06-07T09:55:25.051Z,24.13
2019-06-07T09:56:22.362Z,24.16
2019-06-07T09:57:22.342Z,24.14
2019-06-07T09:59:23.322Z,24.32
2019-06-07T10:00:39.714Z,24.52
2019-06-07T10:01:23.366Z,24.85
2019-06-07T10:02:22.289Z,25.31
2019-06-07T10:03:22.864Z,25.50
2019-06-07T10:04:31.233Z,25.44
2019-06-07T10:05:23.267Z,25.35
2019-06-07T10:06:22.272Z,25.57
2019-06-07T10:07:31.351Z,25.72
2019-06-07T10:09:42.306Z,25.80
2019-06-07T10:10:08.602Z,25.65
2019-06-07T10:11:23.197Z,25.80
2019-06-07T10:12:22.193Z,25.53
2019-06-07T10:13:22.220Z,25.52
2019-06-07T10:14:22.208Z,25.62
2019-06-07T10:15:22.177Z,25.61
2019-06-07T10:16:22.145Z,25.22
2019-06-07T10:17:22.136Z,25.38
2019-06-07T10:18:22.130Z,25.38
2019-06-07T10:19:22.132Z,25.46
2019-06-07T10:20:22.113Z,25.71
2019-06-07T10:21:22.126Z,25.89
2019-06-07T10:22:22.158Z,25.98
2019-06-07T10:23:22.074Z,26.11
2019-06-07T10:24:22.063Z,26.09
2019-06-07T10:25:22.072Z,26.11
2019-06-07T10:26:22.045Z,26.31
2019-06-07T10:27:22.199Z,26.44
2019-06-07T10:28:22.025Z,26.55
2019-06-07T10:29:22.018Z,26.69
2019-06-07T10:30:22.028Z,26.83
2019-06-07T10:31:22.018Z,27.04
2019-06-07T10:32:22.000Z,26.91
2019-06-07T10:33:21.978Z,26.87
2019-06-07T10:34:21.967Z,26.92
2019-06-07T10:35:21.961Z,27.04
2019-06-07T10:36:21.967Z,27.26
2019-06-07T10:37:21.936Z,26.83
2019-06-07T10:38:21.941Z,26.92
2019-06-07T10:39:21.922Z,26.50
2019-06-07T10:40:21.914Z,26.35
2019-06-07T10:41:21.920Z,26.50
2019-06-07T10:42:21.887Z,26.58
2019-06-07T10:43:21.874Z,26.67
2019-06-07T10:44:21.875Z,26.74
2019-06-07T10:45:21.888Z,26.49
2019-06-07T10:46:21.851Z,26.67
2019-06-07T10:47:21.866Z,26.67
2019-06-07T10:48:24.796Z,26.89
2019-06-07T10:49:21.814Z,27.16
2019-06-07T10:50:21.813Z,27.19
2019-06-07T10:51:21.810Z,27.33
2019-06-07T10:52:21.789Z,27.20
2019-06-07T10:53:21.834Z,27.32
2019-06-07T10:54:29.647Z,27.31
2019-06-07T10:55:22.758Z,27.20
2019-06-07T10:56:21.756Z,27.33
2019-06-07T10:57:21.754Z,27.66
2019-06-07T10:58:21.724Z,27.74
2019-06-07T10:59:21.716Z,27.64
2019-06-07T11:00:21.750Z,27.47
2019-06-07T11:01:21.712Z,27.33
2019-06-07T11:02:21.702Z,27.11
2019-06-07T11:03:21.683Z,27.06
2019-06-07T11:04:21.674Z,26.87
2019-06-07T11:05:21.667Z,26.76
2019-06-07T11:06:21.663Z,26.87
2019-06-07T11:07:21.653Z,27.04
2019-06-07T11:08:21.625Z,27.17
2019-06-07T11:09:21.652Z,27.36
2019-06-07T11:10:21.620Z,27.48
2019-06-07T11:11:21.606Z,27.73
2019-06-07T11:12:21.589Z,27.53
2019-06-07T11:13:21.573Z,27.41
2019-06-07T11:14:21.566Z,27.35
2019-06-07T11:15:21.556Z,27.38
2019-06-07T11:16:21.555Z,27.50
2019-06-07T11:17:21.549Z,27.88
2019-06-07T11:18:21.546Z,28.23
2019-06-07T11:19:21.518Z,28.29
2019-06-07T11:20:21.504Z,27.82
2019-06-07T11:21:21.505Z,27.41
2019-06-07T11:22:21.485Z,26.96
2019-06-07T11:23:21.476Z,26.77
2019-06-07T11:24:24.593Z,26.79
2019-06-07T11:25:21.492Z,26.27
2019-06-07T11:26:21.450Z,26.01
2019-06-07T11:27:21.432Z,25.87
2019-06-07T11:28:21.441Z,25.56
2019-06-07T11:29:21.424Z,25.52
2019-06-07T11:30:21.410Z,25.52
2019-06-07T11:31:21.398Z,25.32
2019-06-07T11:32:21.381Z,25.37
2019-06-07T11:33:21.371Z,25.61
2019-06-07T11:34:21.357Z,25.69
2019-06-07T11:35:21.348Z,25.97
2019-06-07T11:36:21.354Z,26.02
2019-06-07T11:37:21.356Z,26.21
2019-06-07T11:38:21.326Z,25.93
2019-06-07T11:39:21.320Z,26.35
2019-06-07T11:40:34.087Z,26.52
2019-06-07T11:41:22.301Z,26.58
2019-06-07T11:42:21.275Z,26.44
2019-06-07T11:43:21.279Z,26.59
2019-06-07T11:44:21.251Z,26.29
2019-06-07T11:45:21.245Z,26.18
2019-06-07T11:46:21.255Z,26.15
2019-06-07T11:47:21.243Z,26.12
2019-06-07T11:48:21.212Z,25.99
2019-06-07T11:49:22.108Z,25.87
2019-06-07T11:50:21.187Z,25.71
2019-06-07T11:51:21.228Z,26.15
2019-06-07T11:52:21.206Z,26.05
2019-06-07T11:53:21.156Z,26.11
2019-06-07T11:54:21.152Z,25.83
2019-06-07T11:55:21.132Z,25.93
2019-06-07T11:56:21.123Z,25.97
2019-06-07T11:57:21.359Z,26.01
2019-06-07T11:58:21.835Z,26.44
2019-06-07T11:59:21.094Z,26.77
2019-06-07T12:00:21.091Z,26.91
2019-06-07T12:01:21.069Z,27.26
2019-06-07T12:02:21.070Z,27.38
2019-06-07T12:03:21.052Z,27.94
2019-06-07T12:04:32.454Z,28.11
2019-06-07T12:05:22.029Z,28.33
2019-06-07T12:06:21.021Z,28.43
2019-06-07T12:07:21.022Z,28.17
2019-06-07T12:08:21.012Z,27.79
2019-06-07T12:09:20.984Z,27.58
2019-06-07T12:10:23.038Z,27.50
2019-06-07T12:11:21.011Z,27.70
2019-06-07T12:12:21.111Z,27.98
2019-06-07T12:13:20.943Z,27.54
2019-06-07T12:14:20.930Z,27.28
2019-06-07T12:15:20.938Z,27.41
2019-06-07T12:16:20.928Z,27.06
2019-06-07T12:17:20.912Z,26.69
2019-06-07T12:18:20.897Z,26.31
2019-06-07T12:19:20.877Z,26.42
2019-06-07T12:20:21.185Z,26.59
2019-06-07T12:21:20.855Z,26.74
2019-06-07T12:22:20.854Z,26.61
2019-06-07T12:23:20.897Z,26.29
2019-06-07T12:24:21.205Z,26.11
2019-06-07T12:25:24.751Z,25.91
2019-06-07T12:26:20.899Z,25.72
2019-06-07T12:27:20.890Z,25.59
2019-06-07T12:28:21.052Z,25.68
2019-06-07T12:29:21.138Z,25.67
2019-06-07T12:30:27.304Z,25.69
2019-06-07T12:31:21.742Z,25.79
2019-06-07T12:32:21.580Z,25.90
2019-06-07T12:33:21.704Z,25.91
2019-06-07T12:34:21.667Z,25.90
2019-06-07T12:35:21.867Z,26.11
2019-06-07T12:36:21.980Z,26.21
2019-06-07T12:37:25.299Z,26.20
2019-06-07T12:38:23.128Z,26.08
2019-06-07T12:39:20.655Z,26.15
2019-06-07T12:40:30.109Z,26.04
2019-06-07T12:41:22.407Z,25.99
2019-06-07T12:42:20.686Z,26.02
2019-06-07T12:43:20.913Z,25.94
2019-06-07T12:44:20.798Z,25.93
2019-06-07T12:45:41.311Z,26.02
2019-06-07T12:46:27.971Z,26.50
2019-06-07T12:47:21.579Z,26.96
2019-06-07T12:48:23.994Z,27.31
2019-06-07T12:49:21.569Z,27.41
2019-06-07T12:50:21.716Z,27.54
2019-06-07T12:51:21.270Z,27.71
2019-06-07T12:52:22.810Z,27.48
2019-06-07T12:53:25.927Z,27.38
2019-06-07T12:54:21.728Z,27.39
2019-06-07T12:55:22.499Z,27.54
2019-06-07T12:56:21.820Z,27.67
2019-06-07T12:57:20.462Z,28.06
2019-06-07T12:58:27.187Z,28.14
2019-06-07T12:59:22.101Z,28.07
2019-06-07T13:00:20.438Z,28.14
2019-06-07T13:01:20.831Z,28.51
2019-06-07T13:02:22.065Z,28.69
2019-06-07T13:03:20.965Z,28.91
2019-06-07T13:04:20.562Z,29.03
2019-06-07T13:05:21.636Z,29.00
2019-06-07T13:06:21.600Z,28.65
2019-06-07T13:07:21.957Z,28.31
2019-06-07T13:08:21.927Z,27.88
2019-06-07T13:09:21.838Z,27.58
2019-06-07T13:10:21.944Z,27.16
2019-06-07T13:11:26.166Z,27.19
2019-06-07T13:12:21.753Z,26.92
2019-06-07T13:13:21.059Z,26.55
2019-06-07T13:14:20.281Z,26.32
2019-06-07T13:15:22.682Z,26.52
2019-06-07T13:16:20.246Z,26.99
2019-06-07T13:17:20.409Z,27.35
2019-06-07T13:18:21.617Z,27.46
2019-06-07T13:19:20.215Z,27.53
2019-06-07T13:20:20.489Z,27.66
2019-06-07T13:21:20.351Z,27.82
2019-06-07T13:22:20.453Z,28.09
2019-06-07T13:23:20.861Z,28.35
2019-06-07T13:24:20.912Z,28.66
2019-06-07T13:25:21.285Z,28.66
2019-06-07T13:26:20.607Z,28.65
2019-06-07T13:27:20.395Z,28.65
2019-06-07T13:28:20.729Z,28.81
2019-06-07T13:29:20.462Z,28.66
2019-06-07T13:30:21.059Z,28.56
2019-06-07T13:31:21.080Z,28.51
2019-06-07T13:32:20.095Z,28.28
2019-06-07T13:33:21.774Z,27.96
2019-06-07T13:34:20.529Z,27.69
2019-06-07T13:35:21.974Z,27.48
2019-06-07T13:36:20.214Z,27.32
2019-06-07T13:37:21.111Z,27.14
2019-06-07T13:38:20.585Z,26.92
2019-06-07T13:39:23.199Z,26.86
2019-06-07T13:40:21.560Z,26.81
2019-06-07T13:41:32.584Z,26.83
2019-06-07T13:42:20.958Z,26.96
2019-06-07T13:43:19.955Z,27.17
2019-06-07T13:44:20.962Z,26.92
2019-06-07T13:45:20.123Z,26.79
2019-06-07T13:46:20.940Z,26.76
2019-06-07T13:47:21.111Z,26.59
2019-06-07T13:48:21.155Z,26.64
2019-06-07T13:49:21.403Z,26.69
2019-06-07T13:50:19.880Z,26.54
2019-06-07T13:51:21.157Z,26.62
2019-06-07T13:52:19.847Z,26.59
2019-06-07T13:53:20.701Z,26.55
2019-06-07T13:54:20.673Z,26.72
2019-06-07T13:55:20.090Z,26.55
2019-06-07T13:56:19.884Z,26.42
2019-06-07T13:57:20.027Z,26.09
2019-06-07T13:58:21.294Z,25.84
2019-06-07T13:59:20.460Z,25.74
2019-06-07T14:00:22.728Z,25.67
2019-06-07T14:01:20.337Z,25.89
2019-06-07T14:02:20.857Z,25.89
2019-06-07T14:03:23.655Z,25.84
2019-06-07T14:04:20.969Z,25.98
2019-06-07T14:05:20.924Z,25.98
2019-06-07T14:06:20.843Z,26.11
2019-06-07T14:07:21.186Z,26.40
2019-06-07T14:08:21.006Z,26.49
2019-06-07T14:09:19.660Z,26.68
2019-06-07T14:10:19.683Z,26.72
2019-06-07T14:11:19.645Z,26.83
2019-06-07T14:12:19.636Z,26.81
2019-06-07T14:13:19.625Z,26.62
2019-06-07T14:14:20.164Z,26.64
2019-06-07T14:15:20.522Z,26.52
2019-06-07T14:16:20.032Z,26.39
2019-06-07T14:17:19.577Z,26.29
2019-06-07T14:18:20.349Z,26.20
2019-06-07T14:19:20.421Z,26.01
2019-06-07T14:20:25.434Z,25.90
2019-06-07T14:21:20.525Z,25.90
2019-06-07T14:22:20.536Z,25.84
2019-06-07T14:23:37.954Z,25.99
2019-06-07T14:24:20.937Z,26.06
2019-06-07T14:25:19.799Z,25.91
2019-06-07T14:26:19.565Z,25.84
2019-06-07T14:27:19.466Z,25.84
2019-06-07T14:28:19.508Z,25.80
2019-06-07T14:29:19.463Z,25.77
2019-06-07T14:30:19.450Z,25.64
2019-06-07T14:31:19.420Z,25.54
2019-06-07T14:32:19.410Z,25.53
2019-06-07T14:33:23.033Z,25.57
2019-06-07T14:34:20.398Z,25.52
2019-06-07T14:35:19.378Z,25.52
2019-06-07T14:36:19.364Z,25.52
2019-06-07T14:37:19.364Z,25.62
2019-06-07T14:38:19.348Z,25.64
2019-06-07T14:39:19.358Z,25.61
2019-06-07T14:40:19.321Z,25.67
2019-06-07T14:41:19.327Z,25.67
2019-06-07T14:42:19.335Z,25.59
2019-06-07T14:43:19.282Z,25.62
2019-06-07T14:44:19.288Z,25.57
2019-06-07T14:45:19.294Z,25.53
2019-06-07T14:46:19.252Z,25.43
2019-06-07T14:47:19.329Z,25.35
2019-06-07T14:48:19.237Z,25.39
2019-06-07T14:49:19.228Z,25.28
2019-06-07T14:50:19.268Z,25.16
2019-06-07T14:51:19.197Z,25.13
2019-06-07T14:52:19.186Z,25.07
2019-06-07T14:53:19.175Z,25.10
2019-06-07T14:54:19.173Z,24.95
2019-06-07T14:55:19.278Z,24.75
2019-06-07T14:56:19.144Z,24.73
2019-06-07T14:57:19.131Z,24.49
2019-06-07T14:58:19.131Z,24.42
2019-06-07T14:59:19.120Z,24.47
2019-06-07T15:00:19.118Z,24.35
2019-06-07T15:01:19.093Z,24.31
2019-06-07T15:02:19.100Z,24.37
2019-06-07T15:03:19.068Z,24.35
2019-06-07T15:04:19.074Z,24.41
2019-06-07T15:05:19.048Z,24.24
2019-06-07T15:06:19.036Z,24.29
2019-06-07T15:07:19.027Z,24.23
2019-06-07T15:08:19.023Z,24.10
2019-06-07T15:09:19.017Z,23.95
2019-06-07T15:10:18.995Z,23.85
2019-06-07T15:11:18.983Z,23.52
2019-06-07T15:12:25.105Z,23.38
2019-06-07T15:13:19.956Z,23.17
2019-06-07T15:14:18.955Z,23.15
2019-06-07T15:15:18.936Z,23.15
2019-06-07T15:16:18.926Z,22.97
2019-06-07T15:17:18.933Z,23.01
2019-06-07T15:18:18.912Z,23.01
2019-06-07T15:19:18.902Z,22.97
2019-06-07T15:20:18.885Z,23.05
2019-06-07T15:21:18.874Z,22.94
2019-06-07T15:22:18.865Z,22.86
2019-06-07T15:23:18.853Z,22.80
2019-06-07T15:24:18.848Z,22.82
2019-06-07T15:25:18.831Z,22.82
2019-06-07T15:26:18.829Z,22.77
2019-06-07T15:27:18.807Z,22.75
2019-06-07T15:28:18.802Z,22.77
2019-06-07T15:29:18.797Z,22.83
2019-06-07T15:30:18.780Z,22.80
2019-06-07T15:31:18.766Z,22.80
2019-06-07T15:32:18.765Z,22.77
2019-06-07T15:33:18.738Z,22.68
2019-06-07T15:34:18.741Z,22.65
2019-06-07T15:35:18.715Z,22.53
2019-06-07T15:36:18.703Z,22.41
2019-06-07T15:37:18.701Z,22.29
2019-06-07T15:38:18.683Z,21.92
2019-06-07T15:39:18.673Z,21.48
2019-06-07T15:40:18.668Z,20.76
2019-06-07T15:41:18.658Z,20.08
2019-06-07T15:42:18.637Z,19.54
2019-06-07T15:43:18.629Z,19.17
2019-06-07T15:44:18.654Z,19.01
2019-06-07T15:45:18.617Z,18.92
2019-06-07T15:46:18.595Z,18.82
2019-06-07T15:47:18.589Z,18.72
2019-06-07T15:48:18.573Z,18.57
2019-06-07T15:49:18.559Z,18.50
2019-06-07T15:50:18.561Z,18.58
2019-06-07T15:51:18.539Z,18.58
2019-06-07T15:52:18.529Z,18.46
2019-06-07T15:53:18.552Z,18.64
2019-06-07T15:54:18.543Z,18.58
2019-06-07T15:55:18.501Z,18.58
2019-06-07T15:56:18.485Z,18.61
2019-06-07T15:57:18.471Z,18.67
2019-06-07T15:58:18.468Z,18.61
2019-06-07T15:59:18.477Z,18.86
2019-06-07T16:00:18.451Z,18.86
2019-06-07T16:01:18.432Z,18.94
2019-06-07T16:02:18.450Z,18.99
2019-06-07T16:03:18.432Z,18.90
2019-06-07T16:04:18.418Z,18.98
2019-06-07T16:05:18.397Z,19.02
2019-06-07T16:06:19.687Z,18.94
2019-06-07T16:07:18.361Z,18.97
2019-06-07T16:08:18.351Z,18.98
2019-06-07T16:09:18.359Z,18.97
2019-06-07T16:10:18.342Z,19.05
2019-06-07T16:11:18.316Z,19.13
2019-06-07T16:12:18.305Z,18.99
2019-06-07T16:13:18.293Z,18.91
2019-06-07T16:14:18.325Z,18.91
2019-06-07T16:15:18.579Z,18.92
2019-06-07T16:16:18.262Z,18.80
2019-06-07T16:17:18.250Z,18.79
2019-06-07T16:18:18.243Z,18.65
2019-06-07T16:19:18.228Z,18.64
2019-06-07T16:20:18.244Z,18.57
2019-06-07T16:21:18.205Z,18.55
2019-06-07T16:22:18.192Z,18.43
2019-06-07T16:23:18.180Z,18.40
2019-06-07T16:24:18.170Z,18.36
2019-06-07T16:25:18.169Z,18.33
2019-06-07T16:26:18.154Z,18.24
2019-06-07T16:27:18.134Z,18.24
2019-06-07T16:28:18.120Z,18.17
2019-06-07T16:29:18.109Z,18.13
2019-06-07T16:30:18.097Z,18.04
2019-06-07T16:31:18.103Z,18.06
2019-06-07T16:32:18.087Z,17.97
2019-06-07T16:33:18.070Z,17.89
2019-06-07T16:34:18.080Z,17.84
2019-06-07T16:35:18.089Z,17.92
2019-06-07T16:36:18.042Z,17.81
2019-06-07T16:37:18.020Z,17.81
2019-06-07T16:38:18.054Z,17.84
2019-06-07T16:39:17.999Z,17.78
2019-06-07T16:40:17.996Z,17.84
2019-06-07T16:41:18.007Z,17.69
2019-06-07T16:42:17.968Z,17.71
2019-06-07T16:43:18.689Z,17.63
2019-06-07T16:44:17.942Z,17.63
2019-06-07T16:45:17.932Z,17.59
2019-06-07T16:46:17.973Z,17.69
2019-06-07T16:47:17.909Z,17.63
2019-06-07T16:48:17.932Z,17.69
2019-06-07T16:49:17.891Z,17.48
2019-06-07T16:50:17.875Z,17.47
2019-06-07T16:51:17.877Z,17.44
2019-06-07T16:52:17.853Z,17.46
2019-06-07T16:53:17.907Z,17.38
2019-06-07T16:54:17.852Z,17.32
2019-06-07T16:55:17.819Z,17.35
2019-06-07T16:56:17.822Z,17.33
2019-06-07T16:57:17.913Z,17.25
2019-06-07T16:58:17.789Z,17.22
2019-06-07T16:59:17.780Z,17.20
2019-06-07T17:00:17.866Z,17.15
2019-06-07T17:01:17.785Z,17.20
2019-06-07T17:02:17.790Z,17.18
2019-06-07T17:03:17.744Z,17.30
2019-06-07T17:04:17.723Z,17.23
2019-06-07T17:05:17.712Z,17.18
2019-06-07T17:06:17.710Z,17.28
2019-06-07T17:07:17.698Z,17.22
2019-06-07T17:08:17.777Z,17.07
2019-06-07T17:09:17.689Z,17.17
2019-06-07T17:10:17.657Z,17.13
2019-06-07T17:11:17.687Z,17.15
2019-06-07T17:12:17.641Z,17.08
2019-06-07T17:13:32.543Z,17.06
2019-06-07T17:14:18.616Z,17.07
2019-06-07T17:15:17.600Z,17.10
2019-06-07T17:16:18.080Z,17.07
2019-06-07T17:17:17.576Z,17.06
2019-06-07T17:18:17.567Z,16.93
2019-06-07T17:19:17.558Z,16.98
2019-06-07T17:20:17.562Z,16.98
2019-06-07T17:21:17.551Z,16.92
2019-06-07T17:22:17.522Z,16.89
2019-06-07T17:23:17.520Z,16.81
2019-06-07T17:24:17.502Z,16.90
2019-06-07T17:25:17.491Z,16.85
2019-06-07T17:26:17.482Z,16.80
2019-06-07T17:27:17.478Z,16.92
2019-06-07T17:28:17.467Z,16.85
2019-06-07T17:29:17.454Z,16.81
2019-06-07T17:30:17.435Z,16.80
2019-06-07T17:31:17.497Z,16.68
2019-06-07T17:32:17.419Z,16.65
2019-06-07T17:33:17.401Z,16.70
2019-06-07T17:34:17.429Z,16.63
2019-06-07T17:35:17.381Z,16.75
2019-06-07T17:36:17.366Z,16.68
2019-06-07T17:37:17.362Z,16.67
2019-06-07T17:38:17.346Z,16.67
2019-06-07T17:39:17.337Z,16.68
2019-06-07T17:40:17.341Z,16.70
2019-06-07T17:41:17.315Z,16.71
2019-06-07T17:42:17.373Z,16.63
2019-06-07T17:43:17.295Z,16.63
2019-06-07T17:44:17.283Z,16.67
2019-06-07T17:45:17.293Z,16.68
2019-06-07T17:46:17.256Z,16.67
2019-06-07T17:47:17.264Z,16.68
2019-06-07T17:48:17.252Z,16.71
2019-06-07T17:49:17.222Z,16.59
2019-06-07T17:50:17.212Z,16.68
2019-06-07T17:51:17.208Z,16.68
2019-06-07T17:52:17.196Z,16.62
2019-06-07T17:53:17.180Z,16.59
2019-06-07T17:54:17.243Z,16.74
2019-06-07T17:55:17.156Z,16.67
2019-06-07T17:56:17.147Z,16.62
2019-06-07T17:57:17.158Z,16.62
2019-06-07T17:58:17.123Z,16.59
2019-06-07T17:59:17.110Z,16.73
2019-06-07T18:00:33.504Z,16.60
2019-06-07T18:01:18.086Z,16.65
2019-06-07T18:02:17.114Z,16.63
2019-06-07T18:03:17.063Z,16.74
2019-06-07T18:04:17.053Z,16.67
2019-06-07T18:05:17.044Z,16.68
2019-06-07T18:06:17.038Z,16.73
2019-06-07T18:07:17.076Z,16.71
2019-06-07T18:08:17.024Z,16.77
2019-06-07T18:09:17.018Z,16.68
2019-06-07T18:10:16.987Z,16.63
2019-06-07T18:11:16.975Z,16.78
2019-06-07T18:12:16.964Z,16.77
2019-06-07T18:13:16.966Z,16.75
2019-06-07T18:14:16.968Z,16.81
2019-06-07T18:15:16.930Z,16.75
2019-06-07T18:16:16.923Z,16.86
2019-06-07T18:17:16.907Z,16.86
2019-06-07T18:18:16.910Z,16.92
2019-06-07T18:19:16.885Z,16.95
2019-06-07T18:20:16.873Z,16.85
2019-06-07T18:21:16.863Z,16.90
2019-06-07T18:22:16.855Z,17.00
2019-06-07T18:23:16.846Z,16.99
2019-06-07T18:24:16.845Z,16.98
2019-06-07T18:25:16.820Z,16.93
2019-06-07T18:26:16.808Z,16.99
2019-06-07T18:27:16.869Z,16.95
2019-06-07T18:28:16.791Z,16.96
2019-06-07T18:29:16.778Z,16.90
2019-06-07T18:30:16.767Z,16.96
2019-06-07T18:31:16.749Z,16.96
2019-06-07T18:32:16.753Z,17.00
2019-06-07T18:33:16.736Z,16.98
2019-06-07T18:34:16.723Z,17.13
2019-06-07T18:35:16.721Z,17.15
2019-06-07T18:36:16.695Z,17.14
2019-06-07T18:37:16.681Z,17.18